createdAt,value
2022-09-14T00:01:44.878Z,5.45
2022-09-14T00:04:16.594Z,5.20
2022-09-14T00:06:46.032Z,3.85
2022-09-14T00:09:19.535Z,3.40
2022-09-14T00:11:48.064Z,3.83
2022-09-14T00:14:16.855Z,4.28
2022-09-14T00:16:45.671Z,4.63
2022-09-14T00:19:22.214Z,4.82
2022-09-14T00:21:54.408Z,4.55
2022-09-14T00:24:23.791Z,3.92
2022-09-14T00:26:52.728Z,3.85
2022-09-14T00:29:21.111Z,4.45
2022-09-14T00:31:49.227Z,4.28
2022-09-14T00:34:19.687Z,4.50
2022-09-14T00:36:50.396Z,4.35
2022-09-14T00:39:21.462Z,4.85
2022-09-14T00:41:51.232Z,3.60
2022-09-14T00:45:02.033Z,4.95
2022-09-14T00:47:32.825Z,4.75
2022-09-14T00:50:07.513Z,4.90
2022-09-14T00:52:39.572Z,5.65
2022-09-14T00:55:11.987Z,7.40
2022-09-14T00:57:45.067Z,6.05
2022-09-14T01:00:16.560Z,5.03
2022-09-14T01:02:45.295Z,5.10
2022-09-14T01:05:15.777Z,4.68
2022-09-14T01:08:33.204Z,4.07
2022-09-14T01:11:28.072Z,4.68
2022-09-14T01:14:06.570Z,4.90
2022-09-14T01:16:45.769Z,4.93
2022-09-14T01:19:25.925Z,5.82
2022-09-14T01:22:02.963Z,5.32
2022-09-14T01:24:46.290Z,5.85
2022-09-14T01:27:41.761Z,7.05
2022-09-14T01:30:13.121Z,5.47
2022-09-14T01:32:51.271Z,7.13
2022-09-14T01:35:27.350Z,7.97
2022-09-14T01:38:02.625Z,6.07
2022-09-14T01:40:36.298Z,8.50
2022-09-14T01:43:15.784Z,7.72
2022-09-14T01:45:50.867Z,7.55
2022-09-14T01:48:26.005Z,8.65
2022-09-14T01:50:59.084Z,7.75
2022-09-14T01:53:37.731Z,7.22
2022-09-14T01:56:16.962Z,7.25
2022-09-14T02:02:21.770Z,6.90
2022-09-14T02:04:57.948Z,6.60
2022-09-14T02:07:26.432Z,7.23
2022-09-14T02:09:56.751Z,6.95
2022-09-14T02:12:25.717Z,6.80
2022-09-14T02:14:56.001Z,6.55
2022-09-14T02:17:24.356Z,7.70
2022-09-14T02:19:58.166Z,6.93
2022-09-14T02:22:30.042Z,7.88
2022-09-14T02:24:58.844Z,7.03
2022-09-14T02:27:27.573Z,6.68
2022-09-14T02:29:57.034Z,8.70
2022-09-14T02:32:44.364Z,8.25
2022-09-14T02:35:20.680Z,7.00
2022-09-14T02:38:00.032Z,8.52
2022-09-14T02:40:36.672Z,10.85
2022-09-14T02:43:23.740Z,9.93
2022-09-14T02:46:05.990Z,9.65
2022-09-14T02:48:45.036Z,10.05
2022-09-14T02:51:26.023Z,9.52
2022-09-14T02:54:02.884Z,10.35
2022-09-14T02:58:58.984Z,8.65
2022-09-14T03:01:28.590Z,8.35
2022-09-14T03:03:57.039Z,10.90
2022-09-14T03:06:25.542Z,9.45
2022-09-14T03:08:53.586Z,10.73
2022-09-14T03:11:21.682Z,10.32
2022-09-14T03:13:49.924Z,10.45
2022-09-14T03:16:19.768Z,11.50
2022-09-14T03:18:49.278Z,11.77
2022-09-14T03:21:19.617Z,10.48
2022-09-14T03:23:55.109Z,10.57
2022-09-14T03:26:25.612Z,10.98
2022-09-14T03:28:56.238Z,10.95
2022-09-14T03:31:24.832Z,11.77
2022-09-14T03:33:56.862Z,12.27
2022-09-14T03:36:28.551Z,12.52
2022-09-14T03:38:59.990Z,12.02
2022-09-14T03:41:28.505Z,13.38
2022-09-14T03:43:56.593Z,14.38
2022-09-14T03:46:26.750Z,11.88
2022-09-14T03:48:57.366Z,11.88
2022-09-14T03:51:25.784Z,13.02
2022-09-14T03:53:54.432Z,11.77
2022-09-14T03:56:24.231Z,11.70
2022-09-14T03:58:52.829Z,12.45
2022-09-14T04:01:23.950Z,11.40
2022-09-14T04:03:52.325Z,14.27
2022-09-14T04:06:21.746Z,13.85
2022-09-14T04:08:49.785Z,11.93
2022-09-14T04:11:21.123Z,11.98
2022-09-14T04:13:49.945Z,12.70
2022-09-14T04:16:20.691Z,11.88
2022-09-14T04:18:49.550Z,13.35
2022-09-14T04:21:22.090Z,12.18
2022-09-14T04:26:41.643Z,15.27
2022-09-14T04:29:11.384Z,17.92
2022-09-14T04:31:40.220Z,15.35
2022-09-14T04:34:08.340Z,15.90
2022-09-14T04:36:37.759Z,17.17
2022-09-14T04:39:07.022Z,15.23
2022-09-14T04:41:35.107Z,16.67
2022-09-14T04:44:03.578Z,17.63
2022-09-14T04:46:35.033Z,16.67
2022-09-14T04:49:03.366Z,17.25
2022-09-14T04:51:33.948Z,15.20
2022-09-14T04:54:06.917Z,16.33
2022-09-14T04:56:37.971Z,15.23
2022-09-14T04:59:07.042Z,15.10
2022-09-14T05:01:38.633Z,14.45
2022-09-14T05:04:09.207Z,15.55
2022-09-14T05:06:40.749Z,17.45
2022-09-14T05:09:15.595Z,16.02
2022-09-14T05:11:44.368Z,16.80
2022-09-14T05:14:14.811Z,17.00
2022-09-14T05:16:44.905Z,17.00
2022-09-14T05:19:17.490Z,15.60
2022-09-14T05:21:46.654Z,16.45
2022-09-14T05:24:18.775Z,17.73
2022-09-14T05:26:48.123Z,16.80
2022-09-14T05:29:19.326Z,19.17
2022-09-14T05:31:48.634Z,18.30
2022-09-14T05:34:16.954Z,18.05
2022-09-14T05:36:45.153Z,16.88
2022-09-14T05:39:15.629Z,16.35
2022-09-14T05:41:44.958Z,16.40
2022-09-14T05:44:12.989Z,16.42
2022-09-14T05:46:41.010Z,16.55
2022-09-14T05:49:09.462Z,16.13
2022-09-14T05:51:38.023Z,15.98
2022-09-14T05:54:11.467Z,15.77
2022-09-14T05:56:40.921Z,14.55
2022-09-14T05:59:10.743Z,15.95
2022-09-14T06:01:38.977Z,14.02
2022-09-14T06:04:07.324Z,14.20
2022-09-14T06:06:35.532Z,15.90
2022-09-14T06:09:04.637Z,15.48
2022-09-14T06:11:37.270Z,15.13
2022-09-14T06:14:07.655Z,14.68
2022-09-14T06:16:36.399Z,13.13
2022-09-14T06:19:04.995Z,14.75
2022-09-14T06:21:35.631Z,12.95
2022-09-14T06:24:04.758Z,12.15
2022-09-14T06:26:33.424Z,11.82
2022-09-14T06:29:01.571Z,14.80
2022-09-14T06:31:31.145Z,12.52
2022-09-14T06:34:02.189Z,12.75
2022-09-14T06:36:30.608Z,11.85
2022-09-14T06:39:01.281Z,11.75
2022-09-14T06:41:30.640Z,11.45
2022-09-14T06:44:02.414Z,11.70
2022-09-14T06:46:34.537Z,9.73
2022-09-14T06:49:06.181Z,8.63
2022-09-14T06:51:37.935Z,7.60
2022-09-14T06:54:07.049Z,8.23
2022-09-14T06:56:37.913Z,7.55
2022-09-14T06:59:09.078Z,6.60
2022-09-14T07:01:39.653Z,7.03
2022-09-14T07:04:08.472Z,6.45
2022-09-14T07:06:42.219Z,6.18
2022-09-14T07:09:10.771Z,6.63
2022-09-14T07:11:40.032Z,6.10
2022-09-14T07:14:09.166Z,6.10
2022-09-14T07:16:40.736Z,5.43
2022-09-14T07:19:13.182Z,6.63
2022-09-14T07:21:42.699Z,6.32
2022-09-14T07:24:12.638Z,5.55
2022-09-14T07:26:43.027Z,5.32
2022-09-14T07:29:14.913Z,5.90
2022-09-14T07:31:50.067Z,5.38
2022-09-14T07:34:19.355Z,4.03
2022-09-14T07:36:48.078Z,3.90
2022-09-14T07:39:19.119Z,3.92
2022-09-14T07:41:47.762Z,3.30
2022-09-14T07:44:18.398Z,3.88
2022-09-14T07:46:51.449Z,4.38
2022-09-14T07:49:22.163Z,3.55
2022-09-14T07:51:51.394Z,3.38
2022-09-14T07:54:20.414Z,3.80
2022-09-14T07:56:49.408Z,3.00
2022-09-14T07:59:38.508Z,3.47
2022-09-14T08:02:11.731Z,3.92
2022-09-14T08:04:40.420Z,3.53
2022-09-14T08:07:09.258Z,3.72
2022-09-14T08:09:39.230Z,3.30
2022-09-14T08:12:07.691Z,3.55
2022-09-14T08:14:37.055Z,3.25
2022-09-14T08:17:05.603Z,3.75
2022-09-14T08:19:35.608Z,3.15
2022-09-14T08:22:04.362Z,3.80
2022-09-14T08:24:45.683Z,3.22
2022-09-14T08:27:17.133Z,3.13
2022-09-14T08:29:45.811Z,2.50
2022-09-14T08:32:14.362Z,4.05
2022-09-14T08:34:51.464Z,3.15
2022-09-14T08:37:20.772Z,4.30
2022-09-14T08:40:02.168Z,5.10
2022-09-14T08:42:32.072Z,3.80
2022-09-14T08:45:15.209Z,3.13
2022-09-14T08:47:44.491Z,3.45
2022-09-14T08:50:18.888Z,4.00
2022-09-14T08:52:50.189Z,4.00
2022-09-14T08:55:37.051Z,3.63
2022-09-14T08:58:18.988Z,2.85
2022-09-14T09:00:55.399Z,3.80
2022-09-14T09:03:53.341Z,2.63
2022-09-14T09:06:32.859Z,3.85
2022-09-14T09:09:18.770Z,2.78
2022-09-14T09:11:52.635Z,2.67
2022-09-14T09:14:26.366Z,3.22
2022-09-14T09:16:59.039Z,2.80
2022-09-14T09:19:35.212Z,2.78
2022-09-14T09:22:15.201Z,2.65
2022-09-14T09:24:50.643Z,3.13
2022-09-14T09:27:18.708Z,2.53
2022-09-14T09:29:46.841Z,3.25
2022-09-14T09:32:20.522Z,2.42
2022-09-14T09:34:48.924Z,2.60
2022-09-14T09:37:21.870Z,2.10
2022-09-14T09:39:51.065Z,2.30
2022-09-14T09:42:24.637Z,2.30
2022-09-14T09:45:02.506Z,2.20
2022-09-14T09:47:36.114Z,3.00
2022-09-14T09:50:17.098Z,2.10
2022-09-14T09:52:53.343Z,2.90
2022-09-14T09:55:26.133Z,2.70
2022-09-14T09:57:55.628Z,2.72
2022-09-14T10:00:27.447Z,2.30
2022-09-14T10:02:57.628Z,2.17
2022-09-14T10:05:30.994Z,2.95
2022-09-14T10:08:08.062Z,2.88
2022-09-14T10:10:45.086Z,2.42
2022-09-14T10:13:33.491Z,2.67
2022-09-14T10:16:15.116Z,2.40
2022-09-14T10:18:49.587Z,2.60
2022-09-14T10:21:19.743Z,2.88
2022-09-14T10:24:07.644Z,2.80
2022-09-14T10:26:38.570Z,3.08
2022-09-14T10:29:36.816Z,3.60
2022-09-14T10:32:19.317Z,3.42
2022-09-14T10:34:47.418Z,3.05
2022-09-14T10:37:33.910Z,4.72
2022-09-14T10:40:17.465Z,2.65
2022-09-14T10:43:03.639Z,3.65
2022-09-14T10:45:37.179Z,3.47
2022-09-14T10:48:37.005Z,3.22
2022-09-14T10:51:30.509Z,2.80
2022-09-14T10:54:17.475Z,2.63
2022-09-14T10:57:08.698Z,3.10
2022-09-14T10:59:49.695Z,3.25
2022-09-14T11:02:50.347Z,2.92
2022-09-14T11:05:25.459Z,2.63
2022-09-14T11:08:11.205Z,2.67
2022-09-14T11:10:52.549Z,2.67
2022-09-14T11:13:53.072Z,2.88
2022-09-14T11:16:54.132Z,3.40
2022-09-14T11:19:39.419Z,2.63
2022-09-14T11:22:16.138Z,3.65
2022-09-14T11:24:51.136Z,3.70
2022-09-14T11:27:29.328Z,3.72
2022-09-14T11:30:03.797Z,3.80
2022-09-14T11:32:36.970Z,4.25
2022-09-14T11:35:18.189Z,4.05
2022-09-14T11:37:53.967Z,4.57
2022-09-14T11:40:30.055Z,3.58
2022-09-14T11:43:05.879Z,3.72
2022-09-14T11:45:43.387Z,4.13
2022-09-14T11:48:41.825Z,4.55
2022-09-14T11:53:46.330Z,4.72
2022-09-14T11:56:26.973Z,4.28
2022-09-14T11:58:59.188Z,4.13
2022-09-14T12:01:36.883Z,2.95
2022-09-14T12:04:15.300Z,3.67
2022-09-14T12:07:01.361Z,3.65
2022-09-14T12:09:53.659Z,4.03
2022-09-14T12:12:37.653Z,3.45
2022-09-14T12:15:22.554Z,3.65
2022-09-14T12:17:54.230Z,3.33
2022-09-14T12:20:42.934Z,4.18
2022-09-14T12:23:27.802Z,3.10
2022-09-14T12:26:18.125Z,2.97
2022-09-14T12:28:50.489Z,4.32
2022-09-14T12:31:52.866Z,3.42
2022-09-14T12:34:25.434Z,3.30
2022-09-14T12:37:30.796Z,3.10
2022-09-14T12:40:36.361Z,3.53
2022-09-14T12:43:55.779Z,3.28
2022-09-14T12:46:39.397Z,2.83
2022-09-14T12:49:39.069Z,3.33
2022-09-14T12:52:33.479Z,2.85
2022-09-14T12:55:36.857Z,3.33
2022-09-14T12:58:22.178Z,2.33
2022-09-14T13:01:09.232Z,2.75
2022-09-14T13:03:52.018Z,2.10
2022-09-14T13:06:24.205Z,2.60
2022-09-14T13:08:59.021Z,2.22
2022-09-14T13:11:38.264Z,3.35
2022-09-14T13:14:06.914Z,1.63
2022-09-14T13:16:44.129Z,1.52
2022-09-14T13:19:25.661Z,2.50
2022-09-14T13:21:57.566Z,2.15
2022-09-14T13:24:32.573Z,1.80
2022-09-14T13:27:04.324Z,1.77
2022-09-14T13:29:33.228Z,2.10
2022-09-14T13:32:03.946Z,2.58
2022-09-14T13:34:38.361Z,1.70
2022-09-14T13:37:08.481Z,1.65
2022-09-14T13:39:41.991Z,1.77
2022-09-14T13:42:11.378Z,2.45
2022-09-14T13:44:45.469Z,2.17
2022-09-14T13:47:17.324Z,2.58
2022-09-14T13:49:47.807Z,2.42
2022-09-14T13:52:56.943Z,3.05
2022-09-14T13:55:27.687Z,2.22
2022-09-14T13:58:22.213Z,2.28
2022-09-14T14:01:02.148Z,2.53
2022-09-14T14:03:38.418Z,2.17
2022-09-14T14:06:27.745Z,1.58
2022-09-14T14:09:02.758Z,2.05
2022-09-14T14:11:36.546Z,1.83
2022-09-14T14:14:26.468Z,2.55
2022-09-14T14:17:42.050Z,2.05
2022-09-14T14:20:34.202Z,2.38
2022-09-14T14:23:21.227Z,1.70
2022-09-14T14:28:30.683Z,1.75
2022-09-14T14:31:07.745Z,2.05
2022-09-14T14:33:45.096Z,1.67
2022-09-14T14:36:14.734Z,1.67
2022-09-14T14:38:44.354Z,2.45
2022-09-14T14:41:21.030Z,1.85
2022-09-14T14:43:50.892Z,1.92
2022-09-14T14:46:19.686Z,2.33
2022-09-14T14:48:47.931Z,1.90
2022-09-14T14:51:21.455Z,1.67
2022-09-14T14:53:51.800Z,1.33
2022-09-14T14:56:30.408Z,1.48
2022-09-14T14:59:16.382Z,1.92
2022-09-14T15:01:59.273Z,1.67
2022-09-14T15:04:34.680Z,1.52
2022-09-14T15:07:09.352Z,2.75
2022-09-14T15:10:08.692Z,1.73
2022-09-14T15:17:21.781Z,1.52
2022-09-14T15:22:47.925Z,1.48
2022-09-14T15:25:23.859Z,1.20
2022-09-14T15:27:52.846Z,1.30
2022-09-14T15:30:23.477Z,1.60
2022-09-14T15:32:55.411Z,1.35
2022-09-14T15:35:28.073Z,1.00
2022-09-14T15:37:57.431Z,1.73
2022-09-14T15:43:22.697Z,1.47
2022-09-14T15:45:51.735Z,1.33
2022-09-14T15:48:22.511Z,1.67
2022-09-14T15:50:51.219Z,1.00
2022-09-14T15:53:19.890Z,1.08
2022-09-14T15:55:49.160Z,1.10
2022-09-14T15:58:17.756Z,1.52
2022-09-14T16:00:46.694Z,1.52
2022-09-14T16:03:15.284Z,0.85
2022-09-14T16:05:45.118Z,0.68
2022-09-14T16:08:14.151Z,0.43
2022-09-14T16:10:42.660Z,0.70
2022-09-14T16:13:10.909Z,0.60
2022-09-14T16:15:39.103Z,0.50
2022-09-14T16:18:08.659Z,0.35
2022-09-14T16:20:37.251Z,0.30
2022-09-14T16:23:06.840Z,0.45
2022-09-14T16:25:40.598Z,0.50
2022-09-14T16:28:09.269Z,0.60
2022-09-14T16:30:37.476Z,0.65
2022-09-14T16:33:05.871Z,0.80
2022-09-14T16:35:34.348Z,1.05
2022-09-14T16:38:02.507Z,0.70
2022-09-14T16:40:34.095Z,0.85
2022-09-14T16:43:02.165Z,0.93
2022-09-14T16:45:30.529Z,0.70
2022-09-14T16:47:58.737Z,0.70
2022-09-14T16:50:26.843Z,0.70
2022-09-14T16:52:54.958Z,0.60
2022-09-14T16:55:22.994Z,2.05
2022-09-14T16:57:52.411Z,0.82
2022-09-14T17:00:20.664Z,0.65
2022-09-14T17:02:53.120Z,0.52
2022-09-14T17:05:21.947Z,1.15
2022-09-14T17:07:50.035Z,0.80
2022-09-14T17:10:18.502Z,0.70
2022-09-14T17:12:46.952Z,0.80
2022-09-14T17:15:16.731Z,1.85
2022-09-14T17:17:44.763Z,1.55
2022-09-14T17:20:12.843Z,0.85
2022-09-14T17:22:40.918Z,1.52
2022-09-14T17:25:13.750Z,3.00
2022-09-14T17:27:44.436Z,5.57
2022-09-14T17:30:15.834Z,0.95
2022-09-14T17:32:43.806Z,2.00
2022-09-14T17:35:12.046Z,1.27
2022-09-14T17:37:40.337Z,2.78
2022-09-14T17:40:11.355Z,1.42
2022-09-14T17:42:39.587Z,1.50
2022-09-14T17:45:09.679Z,1.65
2022-09-14T17:47:39.023Z,3.38
2022-09-14T17:50:08.451Z,2.92
2022-09-14T17:52:36.635Z,3.47
2022-09-14T17:55:05.492Z,2.33
2022-09-14T17:57:33.630Z,2.35
2022-09-14T18:00:01.939Z,2.05
2022-09-14T18:02:29.959Z,2.10
2022-09-14T18:05:00.358Z,2.50
2022-09-14T18:07:28.401Z,2.83
2022-09-14T18:09:56.398Z,3.60
2022-09-14T18:12:24.702Z,2.53
2022-09-14T18:14:52.816Z,2.58
2022-09-14T18:17:20.763Z,3.35
2022-09-14T18:19:48.741Z,2.67
2022-09-14T18:22:18.667Z,3.58
2022-09-14T18:24:46.686Z,3.88
2022-09-14T18:27:14.707Z,3.63
2022-09-14T18:29:42.691Z,3.50
2022-09-14T18:32:10.835Z,3.72
2022-09-14T18:34:38.842Z,4.20
2022-09-14T18:37:06.931Z,4.07
2022-09-14T18:39:36.582Z,4.65
2022-09-14T18:42:04.723Z,4.10
2022-09-14T18:44:33.930Z,4.25
2022-09-14T18:47:02.123Z,4.50
2022-09-14T18:49:30.176Z,4.15
2022-09-14T18:51:58.172Z,4.18
2022-09-14T18:54:27.815Z,4.80
2022-09-14T18:56:57.421Z,4.18
2022-09-14T18:59:25.951Z,4.22
2022-09-14T19:01:54.218Z,4.22
2022-09-14T19:04:22.320Z,4.10
2022-09-14T19:06:50.471Z,4.88
2022-09-14T19:09:18.466Z,5.40
2022-09-14T19:11:46.531Z,4.65
2022-09-14T19:14:17.491Z,4.72
2022-09-14T19:16:45.519Z,5.25
2022-09-14T19:19:16.852Z,4.15
2022-09-14T19:21:45.740Z,4.38
2022-09-14T19:24:16.367Z,5.13
2022-09-14T19:26:47.614Z,4.13
2022-09-14T19:29:21.402Z,5.10
2022-09-14T19:31:52.041Z,5.30
2022-09-14T19:34:21.484Z,4.97
2022-09-14T19:36:50.688Z,4.78
2022-09-14T19:39:18.792Z,5.97
2022-09-14T19:41:47.278Z,5.82
2022-09-14T19:44:17.605Z,5.35
2022-09-14T19:46:46.138Z,5.63
2022-09-14T19:49:17.243Z,5.20
2022-09-14T19:51:45.650Z,5.03
2022-09-14T19:54:14.175Z,5.10
2022-09-14T19:56:43.201Z,4.45
2022-09-14T19:59:12.005Z,5.25
2022-09-14T20:01:42.179Z,5.00
2022-09-14T20:04:11.695Z,4.70
2022-09-14T20:06:43.575Z,5.75
2022-09-14T20:09:14.808Z,5.13
2022-09-14T20:11:46.147Z,4.32
2022-09-14T20:14:17.059Z,5.00
2022-09-14T20:16:50.916Z,5.75
2022-09-14T20:19:21.693Z,5.93
2022-09-14T20:21:52.101Z,5.43
2022-09-14T20:24:25.507Z,6.15
2022-09-14T20:26:56.647Z,5.30
2022-09-14T20:29:28.721Z,4.65
2022-09-14T20:31:58.899Z,5.00
2022-09-14T20:34:27.089Z,5.07
2022-09-14T20:36:56.547Z,6.25
2022-09-14T20:39:25.586Z,4.97
2022-09-14T20:41:54.244Z,4.82
2022-09-14T20:44:23.205Z,5.28
2022-09-14T20:46:52.454Z,4.53
2022-09-14T20:49:24.316Z,4.90
2022-09-14T20:51:54.223Z,5.03
2022-09-14T20:54:22.934Z,5.47
2022-09-14T20:56:51.143Z,4.47
2022-09-14T20:59:22.389Z,5.85
2022-09-14T21:01:52.559Z,6.47
2022-09-14T21:04:24.705Z,7.03
2022-09-14T21:06:55.243Z,6.53
2022-09-14T21:09:26.387Z,6.88
2022-09-14T21:11:55.072Z,6.25
2022-09-14T21:14:23.720Z,5.40
2022-09-14T21:16:56.700Z,5.63
2022-09-14T21:19:29.267Z,6.05
2022-09-14T21:21:57.755Z,5.72
2022-09-14T21:24:26.391Z,5.95
2022-09-14T21:26:54.437Z,6.68
2022-09-14T21:29:24.623Z,5.80
2022-09-14T21:31:53.732Z,5.72
2022-09-14T21:34:21.812Z,5.57
2022-09-14T21:36:52.767Z,7.22
2022-09-14T21:39:23.934Z,6.22
2022-09-14T21:41:58.812Z,5.75
2022-09-14T21:44:30.888Z,5.65
2022-09-14T21:46:59.414Z,6.78
2022-09-14T21:49:27.508Z,7.20
2022-09-14T21:51:56.886Z,6.45
2022-09-14T21:54:26.039Z,6.18
2022-09-14T21:56:54.688Z,6.38
2022-09-14T21:59:24.501Z,5.90
2022-09-14T22:01:53.073Z,6.45
2022-09-14T22:04:24.423Z,6.75
2022-09-14T22:06:53.712Z,6.78
2022-09-14T22:09:28.906Z,6.38
2022-09-14T22:11:57.919Z,6.30
2022-09-14T22:14:28.399Z,6.72
2022-09-14T22:16:57.472Z,7.18
2022-09-14T22:19:28.603Z,7.10
2022-09-14T22:21:57.624Z,7.47
2022-09-14T22:24:36.464Z,6.72
2022-09-14T22:27:07.978Z,6.63
2022-09-14T22:29:36.570Z,7.20
2022-09-14T22:32:11.173Z,6.93
2022-09-14T22:34:41.781Z,7.10
2022-09-14T22:37:10.854Z,7.07
2022-09-14T22:39:40.312Z,7.32
2022-09-14T22:42:10.664Z,7.07
2022-09-14T22:44:38.715Z,5.95
2022-09-14T22:47:07.344Z,6.07
2022-09-14T22:49:35.387Z,6.50
2022-09-14T22:52:04.143Z,4.63
2022-09-14T22:54:32.281Z,4.53
2022-09-14T22:57:01.885Z,3.60
2022-09-14T22:59:30.046Z,4.78
2022-09-14T23:01:58.416Z,4.32
2022-09-14T23:04:27.288Z,4.10
2022-09-14T23:06:55.338Z,3.90
2022-09-14T23:09:23.711Z,4.18
2022-09-14T23:11:51.851Z,3.70
2022-09-14T23:14:21.354Z,4.53
2022-09-14T23:16:49.516Z,3.95
2022-09-14T23:19:19.515Z,3.63
2022-09-14T23:21:48.184Z,3.60
2022-09-14T23:24:16.776Z,4.00
2022-09-14T23:26:44.854Z,3.72
2022-09-14T23:29:16.996Z,3.67
2022-09-14T23:31:46.665Z,3.67
2022-09-14T23:34:15.093Z,3.28
2022-09-14T23:36:43.099Z,3.20
2022-09-14T23:39:11.366Z,4.13
2022-09-14T23:41:42.334Z,4.82
2022-09-14T23:44:12.690Z,4.10
2022-09-14T23:46:40.889Z,3.70
2022-09-14T23:49:12.635Z,4.03
2022-09-14T23:51:41.622Z,3.67
2022-09-14T23:54:10.560Z,3.78
2022-09-14T23:56:39.499Z,4.78
2022-09-14T23:59:08.210Z,4.57
